Callands, Virginia
Current Conditions -  °F | °C
As of 6:53 AM on Wednesday 28 Jan 2015 (Local Time) from KDAN Reporting Station
Clear Clear  
Wind Chill: 19°   Ceiling: Unl
Heat Index: 27°   Visibility: 10mi
Dew Point: 13°   Wind: 8mph
Humidity: 56%   Direction: 320°NW
Pressure: 30.16"   Gusts: NA
Location:  36.82°N, 79.59°W
Report Text: KDAN 281153Z AUTO 32007KT 10SM CLR M03/M11 A3016 RMK AO2 SLP212 T10281106 11022 21033 51024
Loading
Personal Weather Stations






























Interactive Weather Map New forecast layout! Learn more

10-Day Weather Forecast

Advertisements
Track Severe Weather on mobile